sensor_id;sensor_type;location;lat;lon;timestamp;temperature;humidity
48575;DHT22;34352;51.084;3.712;2022-09-09T00:13:05;15.30;71.30
48575;DHT22;34352;51.084;3.712;2022-09-09T00:15:46;15.30;71.10
48575;DHT22;34352;51.084;3.712;2022-09-09T00:18:35;15.20;71.60
48575;DHT22;34352;51.084;3.712;2022-09-09T00:21:12;15.30;70.70
48575;DHT22;34352;51.084;3.712;2022-09-09T00:23:42;15.40;70.20
48575;DHT22;34352;51.084;3.712;2022-09-09T00:31:36;15.40;68.80
48575;DHT22;34352;51.084;3.712;2022-09-09T00:34:18;15.40;68.50
48575;DHT22;34352;51.084;3.712;2022-09-09T00:36:45;15.30;68.70
48575;DHT22;34352;51.084;3.712;2022-09-09T00:39:25;15.20;69.00
48575;DHT22;34352;51.084;3.712;2022-09-09T00:42:18;15.20;69.60
48575;DHT22;34352;51.084;3.712;2022-09-09T00:53:51;15.00;72.30
48575;DHT22;34352;51.084;3.712;2022-09-09T00:56:27;15.10;71.70
48575;DHT22;34352;51.084;3.712;2022-09-09T01:01:35;15.00;72.60
48575;DHT22;34352;51.084;3.712;2022-09-09T01:04:07;15.20;71.60
48575;DHT22;34352;51.084;3.712;2022-09-09T01:06:37;15.10;71.50
48575;DHT22;34352;51.084;3.712;2022-09-09T01:12:03;15.10;71.40
48575;DHT22;34352;51.084;3.712;2022-09-09T01:17:20;15.10;70.70
48575;DHT22;34352;51.084;3.712;2022-09-09T01:20:08;15.10;71.40
48575;DHT22;34352;51.084;3.712;2022-09-09T01:25:56;15.10;70.70
48575;DHT22;34352;51.084;3.712;2022-09-09T01:28:26;15.10;70.90
48575;DHT22;34352;51.084;3.712;2022-09-09T01:30:55;15.00;71.80
48575;DHT22;34352;51.084;3.712;2022-09-09T01:33:21;14.90;72.90
48575;DHT22;34352;51.084;3.712;2022-09-09T01:38:33;14.90;72.30
48575;DHT22;34352;51.084;3.712;2022-09-09T01:41:01;15.00;72.50
48575;DHT22;34352;51.084;3.712;2022-09-09T01:43:27;15.00;71.10
48575;DHT22;34352;51.084;3.712;2022-09-09T01:45:55;15.10;70.60
48575;DHT22;34352;51.084;3.712;2022-09-09T01:48:24;15.00;71.10
48575;DHT22;34352;51.084;3.712;2022-09-09T01:50:52;15.00;70.80
48575;DHT22;34352;51.084;3.712;2022-09-09T01:53:20;15.10;70.10
48575;DHT22;34352;51.084;3.712;2022-09-09T01:56:02;15.00;70.60
48575;DHT22;34352;51.084;3.712;2022-09-09T02:02:09;15.00;71.00
48575;DHT22;34352;51.084;3.712;2022-09-09T02:04:44;15.00;70.90
48575;DHT22;34352;51.084;3.712;2022-09-09T02:07:43;15.10;69.90
48575;DHT22;34352;51.084;3.712;2022-09-09T02:10:33;15.00;70.50
48575;DHT22;34352;51.084;3.712;2022-09-09T02:13:20;15.00;71.00
48575;DHT22;34352;51.084;3.712;2022-09-09T02:15:56;15.00;70.70
48575;DHT22;34352;51.084;3.712;2022-09-09T02:18:59;15.00;71.30
48575;DHT22;34352;51.084;3.712;2022-09-09T02:21:28;15.00;71.10
48575;DHT22;34352;51.084;3.712;2022-09-09T02:23:59;15.00;71.40
48575;DHT22;34352;51.084;3.712;2022-09-09T02:26:26;15.00;71.50
48575;DHT22;34352;51.084;3.712;2022-09-09T02:28:55;15.10;71.30
48575;DHT22;34352;51.084;3.712;2022-09-09T02:31:24;15.10;71.00
48575;DHT22;34352;51.084;3.712;2022-09-09T02:34:00;15.20;70.90
48575;DHT22;34352;51.084;3.712;2022-09-09T02:36:30;15.20;71.10
48575;DHT22;34352;51.084;3.712;2022-09-09T02:38:58;15.20;71.70
48575;DHT22;34352;51.084;3.712;2022-09-09T02:41:37;15.30;70.70
48575;DHT22;34352;51.084;3.712;2022-09-09T02:44:12;15.20;70.20
48575;DHT22;34352;51.084;3.712;2022-09-09T02:47:31;15.30;70.90
48575;DHT22;34352;51.084;3.712;2022-09-09T02:50:04;15.40;70.20
48575;DHT22;34352;51.084;3.712;2022-09-09T02:57:47;15.50;68.90
48575;DHT22;34352;51.084;3.712;2022-09-09T03:00:13;15.50;67.90
48575;DHT22;34352;51.084;3.712;2022-09-09T03:02:41;15.40;68.80
48575;DHT22;34352;51.084;3.712;2022-09-09T03:05:07;15.40;69.00
48575;DHT22;34352;51.084;3.712;2022-09-09T03:07:33;15.40;69.30
48575;DHT22;34352;51.084;3.712;2022-09-09T03:09:59;15.40;69.40
48575;DHT22;34352;51.084;3.712;2022-09-09T03:12:26;15.30;69.40
48575;DHT22;34352;51.084;3.712;2022-09-09T03:14:52;15.40;69.40
48575;DHT22;34352;51.084;3.712;2022-09-09T03:17:18;15.40;69.10
48575;DHT22;34352;51.084;3.712;2022-09-09T03:19:43;15.40;69.00
48575;DHT22;34352;51.084;3.712;2022-09-09T03:22:10;15.40;69.20
48575;DHT22;34352;51.084;3.712;2022-09-09T03:24:36;15.40;68.80
48575;DHT22;34352;51.084;3.712;2022-09-09T03:27:03;15.50;68.80
48575;DHT22;34352;51.084;3.712;2022-09-09T03:29:29;15.50;69.00
48575;DHT22;34352;51.084;3.712;2022-09-09T03:31:55;15.50;68.20
48575;DHT22;34352;51.084;3.712;2022-09-09T03:34:20;15.50;68.30
48575;DHT22;34352;51.084;3.712;2022-09-09T03:36:47;15.50;68.20
48575;DHT22;34352;51.084;3.712;2022-09-09T03:39:15;15.50;67.50
48575;DHT22;34352;51.084;3.712;2022-09-09T03:41:42;15.50;67.80
48575;DHT22;34352;51.084;3.712;2022-09-09T03:44:11;15.50;67.80
48575;DHT22;34352;51.084;3.712;2022-09-09T03:46:37;15.70;66.60
48575;DHT22;34352;51.084;3.712;2022-09-09T03:49:04;15.70;65.00
48575;DHT22;34352;51.084;3.712;2022-09-09T03:51:31;15.70;65.30
48575;DHT22;34352;51.084;3.712;2022-09-09T03:54:00;15.60;65.30
48575;DHT22;34352;51.084;3.712;2022-09-09T03:56:27;15.70;65.10
48575;DHT22;34352;51.084;3.712;2022-09-09T03:58:52;15.60;64.30
48575;DHT22;34352;51.084;3.712;2022-09-09T04:01:18;15.70;64.80
48575;DHT22;34352;51.084;3.712;2022-09-09T04:03:45;15.80;64.20
48575;DHT22;34352;51.084;3.712;2022-09-09T04:06:12;15.60;64.50
48575;DHT22;34352;51.084;3.712;2022-09-09T04:08:39;15.60;65.00
48575;DHT22;34352;51.084;3.712;2022-09-09T04:11:06;15.60;64.40
48575;DHT22;34352;51.084;3.712;2022-09-09T04:13:34;15.60;64.40
48575;DHT22;34352;51.084;3.712;2022-09-09T04:16:03;15.60;64.20
48575;DHT22;34352;51.084;3.712;2022-09-09T04:18:29;15.60;64.60
48575;DHT22;34352;51.084;3.712;2022-09-09T04:20:56;15.60;64.20
48575;DHT22;34352;51.084;3.712;2022-09-09T04:23:27;15.60;64.30
48575;DHT22;34352;51.084;3.712;2022-09-09T04:25:55;15.60;65.10
48575;DHT22;34352;51.084;3.712;2022-09-09T04:28:25;15.50;65.80
48575;DHT22;34352;51.084;3.712;2022-09-09T04:30:52;15.50;66.10
48575;DHT22;34352;51.084;3.712;2022-09-09T04:33:20;15.60;65.10
48575;DHT22;34352;51.084;3.712;2022-09-09T04:35:48;15.60;65.40
48575;DHT22;34352;51.084;3.712;2022-09-09T04:38:15;15.60;66.30
48575;DHT22;34352;51.084;3.712;2022-09-09T04:40:51;15.60;66.00
48575;DHT22;34352;51.084;3.712;2022-09-09T04:43:20;15.60;65.60
48575;DHT22;34352;51.084;3.712;2022-09-09T04:45:50;15.60;65.20
48575;DHT22;34352;51.084;3.712;2022-09-09T04:48:17;15.60;65.90
48575;DHT22;34352;51.084;3.712;2022-09-09T04:50:43;15.60;65.50
48575;DHT22;34352;51.084;3.712;2022-09-09T04:53:10;15.60;64.90
48575;DHT22;34352;51.084;3.712;2022-09-09T04:55:35;15.60;65.10
48575;DHT22;34352;51.084;3.712;2022-09-09T04:58:05;15.60;64.60
48575;DHT22;34352;51.084;3.712;2022-09-09T05:00:35;15.60;64.50
48575;DHT22;34352;51.084;3.712;2022-09-09T05:03:05;15.60;65.40
48575;DHT22;34352;51.084;3.712;2022-09-09T05:05:32;15.60;65.20
48575;DHT22;34352;51.084;3.712;2022-09-09T05:08:04;15.70;64.10
48575;DHT22;34352;51.084;3.712;2022-09-09T05:10:31;15.60;64.50
48575;DHT22;34352;51.084;3.712;2022-09-09T05:12:57;15.60;65.30
48575;DHT22;34352;51.084;3.712;2022-09-09T05:15:23;15.70;64.50
48575;DHT22;34352;51.084;3.712;2022-09-09T05:17:57;15.70;63.60
48575;DHT22;34352;51.084;3.712;2022-09-09T05:20:25;15.80;66.40
48575;DHT22;34352;51.084;3.712;2022-09-09T05:22:53;15.60;66.80
48575;DHT22;34352;51.084;3.712;2022-09-09T05:25:20;15.70;67.40
48575;DHT22;34352;51.084;3.712;2022-09-09T05:27:49;15.60;68.30
48575;DHT22;34352;51.084;3.712;2022-09-09T05:30:15;15.70;70.30
48575;DHT22;34352;51.084;3.712;2022-09-09T05:32:44;15.50;72.00
48575;DHT22;34352;51.084;3.712;2022-09-09T05:35:09;15.50;73.20
48575;DHT22;34352;51.084;3.712;2022-09-09T05:37:35;15.40;74.00
48575;DHT22;34352;51.084;3.712;2022-09-09T05:40:04;15.30;73.80
48575;DHT22;34352;51.084;3.712;2022-09-09T05:42:30;15.30;75.20
48575;DHT22;34352;51.084;3.712;2022-09-09T05:44:58;15.20;75.90
48575;DHT22;34352;51.084;3.712;2022-09-09T05:47:26;15.20;76.00
48575;DHT22;34352;51.084;3.712;2022-09-09T05:49:54;15.30;76.60
48575;DHT22;34352;51.084;3.712;2022-09-09T05:52:21;15.30;77.20
48575;DHT22;34352;51.084;3.712;2022-09-09T05:55:14;15.30;76.30
48575;DHT22;34352;51.084;3.712;2022-09-09T05:57:48;15.30;76.00
48575;DHT22;34352;51.084;3.712;2022-09-09T06:00:16;15.30;76.70
48575;DHT22;34352;51.084;3.712;2022-09-09T06:02:41;15.30;77.50
48575;DHT22;34352;51.084;3.712;2022-09-09T06:05:07;15.30;76.40
48575;DHT22;34352;51.084;3.712;2022-09-09T06:07:34;15.30;76.40
48575;DHT22;34352;51.084;3.712;2022-09-09T06:10:02;15.30;76.20
48575;DHT22;34352;51.084;3.712;2022-09-09T06:12:28;15.20;77.10
48575;DHT22;34352;51.084;3.712;2022-09-09T06:14:56;15.10;78.30
48575;DHT22;34352;51.084;3.712;2022-09-09T06:17:22;15.00;79.50
48575;DHT22;34352;51.084;3.712;2022-09-09T06:19:48;15.00;79.80
48575;DHT22;34352;51.084;3.712;2022-09-09T06:22:14;15.10;80.60
48575;DHT22;34352;51.084;3.712;2022-09-09T06:24:40;15.10;81.00
48575;DHT22;34352;51.084;3.712;2022-09-09T06:27:13;15.10;81.30
48575;DHT22;34352;51.084;3.712;2022-09-09T06:29:39;15.00;80.70
48575;DHT22;34352;51.084;3.712;2022-09-09T06:32:05;15.00;80.90
48575;DHT22;34352;51.084;3.712;2022-09-09T06:34:34;15.10;81.30
48575;DHT22;34352;51.084;3.712;2022-09-09T06:37:03;15.10;81.10
48575;DHT22;34352;51.084;3.712;2022-09-09T06:39:28;15.10;80.70
48575;DHT22;34352;51.084;3.712;2022-09-09T06:41:56;15.10;81.00
48575;DHT22;34352;51.084;3.712;2022-09-09T06:44:24;15.20;81.40
48575;DHT22;34352;51.084;3.712;2022-09-09T06:46:56;15.20;81.00
48575;DHT22;34352;51.084;3.712;2022-09-09T06:49:21;15.30;80.20
48575;DHT22;34352;51.084;3.712;2022-09-09T06:51:48;15.40;80.40
48575;DHT22;34352;51.084;3.712;2022-09-09T06:54:20;15.50;79.60
48575;DHT22;34352;51.084;3.712;2022-09-09T06:56:50;15.70;78.00
48575;DHT22;34352;51.084;3.712;2022-09-09T06:59:17;15.90;76.50
48575;DHT22;34352;51.084;3.712;2022-09-09T07:01:43;16.20;76.20
48575;DHT22;34352;51.084;3.712;2022-09-09T07:04:10;16.90;71.00
48575;DHT22;34352;51.084;3.712;2022-09-09T07:06:39;17.40;64.70
48575;DHT22;34352;51.084;3.712;2022-09-09T07:09:10;17.50;55.30
48575;DHT22;34352;51.084;3.712;2022-09-09T07:11:45;17.80;52.40
48575;DHT22;34352;51.084;3.712;2022-09-09T07:14:13;17.70;48.30
48575;DHT22;34352;51.084;3.712;2022-09-09T07:16:43;17.50;53.40
48575;DHT22;34352;51.084;3.712;2022-09-09T07:19:11;17.30;53.20
48575;DHT22;34352;51.084;3.712;2022-09-09T07:21:38;18.10;58.40
48575;DHT22;34352;51.084;3.712;2022-09-09T07:24:05;16.80;58.20
48575;DHT22;34352;51.084;3.712;2022-09-09T07:26:33;16.80;62.50
48575;DHT22;34352;51.084;3.712;2022-09-09T07:29:00;16.70;63.70
48575;DHT22;34352;51.084;3.712;2022-09-09T07:31:32;16.80;64.40
48575;DHT22;34352;51.084;3.712;2022-09-09T07:33:58;17.00;61.60
48575;DHT22;34352;51.084;3.712;2022-09-09T07:36:30;17.50;62.70
48575;DHT22;34352;51.084;3.712;2022-09-09T07:39:00;18.30;48.80
48575;DHT22;34352;51.084;3.712;2022-09-09T07:41:30;18.50;35.20
48575;DHT22;34352;51.084;3.712;2022-09-09T07:44:03;18.40;36.80
48575;DHT22;34352;51.084;3.712;2022-09-09T07:46:31;18.40;42.00
48575;DHT22;34352;51.084;3.712;2022-09-09T07:48:59;18.40;36.80
48575;DHT22;34352;51.084;3.712;2022-09-09T07:51:36;17.90;40.30
48575;DHT22;34352;51.084;3.712;2022-09-09T07:54:21;17.60;45.90
48575;DHT22;34352;51.084;3.712;2022-09-09T07:56:50;17.40;53.60
48575;DHT22;34352;51.084;3.712;2022-09-09T07:59:16;17.10;52.90
48575;DHT22;34352;51.084;3.712;2022-09-09T08:01:46;16.90;57.70
48575;DHT22;34352;51.084;3.712;2022-09-09T08:04:18;16.70;60.90
48575;DHT22;34352;51.084;3.712;2022-09-09T08:06:46;16.60;63.60
48575;DHT22;34352;51.084;3.712;2022-09-09T08:09:13;16.50;65.20
48575;DHT22;34352;51.084;3.712;2022-09-09T08:11:39;16.40;65.70
48575;DHT22;34352;51.084;3.712;2022-09-09T08:14:08;16.40;66.00
48575;DHT22;34352;51.084;3.712;2022-09-09T08:16:36;16.40;65.60
48575;DHT22;34352;51.084;3.712;2022-09-09T08:19:03;16.50;66.90
48575;DHT22;34352;51.084;3.712;2022-09-09T08:21:31;16.30;67.40
48575;DHT22;34352;51.084;3.712;2022-09-09T08:24:00;16.30;67.10
48575;DHT22;34352;51.084;3.712;2022-09-09T08:26:29;16.20;67.60
48575;DHT22;34352;51.084;3.712;2022-09-09T08:28:56;16.20;68.70
48575;DHT22;34352;51.084;3.712;2022-09-09T08:31:27;16.20;67.90
48575;DHT22;34352;51.084;3.712;2022-09-09T08:33:57;16.20;66.50
48575;DHT22;34352;51.084;3.712;2022-09-09T08:36:27;16.20;68.30
48575;DHT22;34352;51.084;3.712;2022-09-09T08:38:57;16.20;67.60
48575;DHT22;34352;51.084;3.712;2022-09-09T08:43:51;16.20;66.80
48575;DHT22;34352;51.084;3.712;2022-09-09T08:46:42;16.30;66.40
48575;DHT22;34352;51.084;3.712;2022-09-09T08:52:13;16.30;65.90
48575;DHT22;34352;51.084;3.712;2022-09-09T08:54:41;16.40;66.70
48575;DHT22;34352;51.084;3.712;2022-09-09T08:57:14;16.10;64.60
48575;DHT22;34352;51.084;3.712;2022-09-09T08:59:40;16.50;64.10
48575;DHT22;34352;51.084;3.712;2022-09-09T09:02:32;16.50;63.70
48575;DHT22;34352;51.084;3.712;2022-09-09T09:05:12;16.50;63.90
48575;DHT22;34352;51.084;3.712;2022-09-09T09:07:55;16.60;63.80
48575;DHT22;34352;51.084;3.712;2022-09-09T09:10:48;16.60;62.70
48575;DHT22;34352;51.084;3.712;2022-09-09T09:13:20;16.50;61.80
48575;DHT22;34352;51.084;3.712;2022-09-09T09:15:57;16.50;63.80
48575;DHT22;34352;51.084;3.712;2022-09-09T09:18:23;16.70;64.00
48575;DHT22;34352;51.084;3.712;2022-09-09T09:21:14;16.80;63.10
48575;DHT22;34352;51.084;3.712;2022-09-09T09:23:51;17.00;59.70
48575;DHT22;34352;51.084;3.712;2022-09-09T09:26:19;17.30;58.80
48575;DHT22;34352;51.084;3.712;2022-09-09T09:28:47;17.60;52.80
48575;DHT22;34352;51.084;3.712;2022-09-09T09:31:13;17.90;48.00
48575;DHT22;34352;51.084;3.712;2022-09-09T09:33:50;18.10;42.70
48575;DHT22;34352;51.084;3.712;2022-09-09T09:36:18;18.30;37.40
48575;DHT22;34352;51.084;3.712;2022-09-09T09:38:59;18.50;35.60
48575;DHT22;34352;51.084;3.712;2022-09-09T09:41:43;18.40;32.80
48575;DHT22;34352;51.084;3.712;2022-09-09T09:46:45;18.00;41.60
48575;DHT22;34352;51.084;3.712;2022-09-09T09:49:11;18.00;42.00
48575;DHT22;34352;51.084;3.712;2022-09-09T09:51:39;17.90;40.90
48575;DHT22;34352;51.084;3.712;2022-09-09T09:54:09;17.70;45.20
48575;DHT22;34352;51.084;3.712;2022-09-09T09:56:40;17.80;48.20
48575;DHT22;34352;51.084;3.712;2022-09-09T09:59:23;17.80;46.40
48575;DHT22;34352;51.084;3.712;2022-09-09T10:01:49;17.80;47.30
48575;DHT22;34352;51.084;3.712;2022-09-09T10:06:41;17.90;43.80
48575;DHT22;34352;51.084;3.712;2022-09-09T10:09:26;17.90;42.70
48575;DHT22;34352;51.084;3.712;2022-09-09T10:15:14;17.90;45.10
48575;DHT22;34352;51.084;3.712;2022-09-09T10:18:22;18.10;42.00
48575;DHT22;34352;51.084;3.712;2022-09-09T10:21:00;18.30;41.10
48575;DHT22;34352;51.084;3.712;2022-09-09T10:29:02;19.00;28.80
48575;DHT22;34352;51.084;3.712;2022-09-09T10:31:57;19.00;27.30
48575;DHT22;34352;51.084;3.712;2022-09-09T10:40:32;18.70;29.70
48575;DHT22;34352;51.084;3.712;2022-09-09T10:43:30;18.90;28.50
48575;DHT22;34352;51.084;3.712;2022-09-09T10:49:08;19.30;18.50
48575;DHT22;34352;51.084;3.712;2022-09-09T10:51:39;19.50;15.80
48575;DHT22;34352;51.084;3.712;2022-09-09T10:56:52;19.40;12.70
48575;DHT22;34352;51.084;3.712;2022-09-09T10:59:25;19.10;15.20
48575;DHT22;34352;51.084;3.712;2022-09-09T11:02:01;18.90;22.30
48575;DHT22;34352;51.084;3.712;2022-09-09T11:04:41;19.00;22.30
48575;DHT22;34352;51.084;3.712;2022-09-09T11:07:12;19.50;14.70
48575;DHT22;34352;51.084;3.712;2022-09-09T11:09:43;20.10;1.00
48575;DHT22;34352;51.084;3.712;2022-09-09T11:12:15;20.30;1.00
48575;DHT22;34352;51.084;3.712;2022-09-09T11:14:51;20.40;1.00
48575;DHT22;34352;51.084;3.712;2022-09-09T11:17:30;21.00;1.00
48575;DHT22;34352;51.084;3.712;2022-09-09T11:19:59;21.50;1.00
48575;DHT22;34352;51.084;3.712;2022-09-09T11:22:34;21.20;1.00
48575;DHT22;34352;51.084;3.712;2022-09-09T11:33:37;20.90;1.00
48575;DHT22;34352;51.084;3.712;2022-09-09T11:36:29;20.60;1.00
48575;DHT22;34352;51.084;3.712;2022-09-09T11:42:23;20.40;1.00
48575;DHT22;34352;51.084;3.712;2022-09-09T11:44:49;20.80;1.00
48575;DHT22;34352;51.084;3.712;2022-09-09T11:47:24;20.90;1.00
48575;DHT22;34352;51.084;3.712;2022-09-09T11:49:54;20.70;1.00
48575;DHT22;34352;51.084;3.712;2022-09-09T11:52:41;20.80;1.00
48575;DHT22;34352;51.084;3.712;2022-09-09T11:55:28;21.10;1.00
48575;DHT22;34352;51.084;3.712;2022-09-09T12:00:40;21.10;1.00
48575;DHT22;34352;51.084;3.712;2022-09-09T12:03:40;21.20;1.00
48575;DHT22;34352;51.084;3.712;2022-09-09T12:06:17;21.90;1.00
48575;DHT22;34352;51.084;3.712;2022-09-09T12:08:50;22.40;1.00
48575;DHT22;34352;51.084;3.712;2022-09-09T12:11:28;22.70;1.00
48575;DHT22;34352;51.084;3.712;2022-09-09T12:13:58;23.60;1.00
48575;DHT22;34352;51.084;3.712;2022-09-09T12:16:33;23.40;1.00
48575;DHT22;34352;51.084;3.712;2022-09-09T12:19:22;22.50;1.00
48575;DHT22;34352;51.084;3.712;2022-09-09T12:22:20;22.20;1.00
48575;DHT22;34352;51.084;3.712;2022-09-09T12:24:59;22.00;1.00
48575;DHT22;34352;51.084;3.712;2022-09-09T12:30:24;22.20;1.00
48575;DHT22;34352;51.084;3.712;2022-09-09T12:33:01;21.90;1.00
48575;DHT22;34352;51.084;3.712;2022-09-09T12:35:28;21.40;1.00
48575;DHT22;34352;51.084;3.712;2022-09-09T12:37:59;21.30;1.00
48575;DHT22;34352;51.084;3.712;2022-09-09T12:40:33;21.30;1.00
48575;DHT22;34352;51.084;3.712;2022-09-09T12:43:14;21.30;1.00
48575;DHT22;34352;51.084;3.712;2022-09-09T12:45:42;21.50;1.00
48575;DHT22;34352;51.084;3.712;2022-09-09T12:48:10;21.80;1.00
48575;DHT22;34352;51.084;3.712;2022-09-09T12:50:49;21.90;1.00
48575;DHT22;34352;51.084;3.712;2022-09-09T12:55:57;21.90;1.00
48575;DHT22;34352;51.084;3.712;2022-09-09T12:58:24;21.60;1.00
48575;DHT22;34352;51.084;3.712;2022-09-09T13:00:52;21.50;1.00
48575;DHT22;34352;51.084;3.712;2022-09-09T13:03:20;20.90;1.00
48575;DHT22;34352;51.084;3.712;2022-09-09T13:05:49;20.80;1.00
48575;DHT22;34352;51.084;3.712;2022-09-09T13:08:16;20.90;1.00
48575;DHT22;34352;51.084;3.712;2022-09-09T13:10:54;20.90;1.00
48575;DHT22;34352;51.084;3.712;2022-09-09T13:13:26;21.00;1.00
48575;DHT22;34352;51.084;3.712;2022-09-09T13:15:54;21.00;1.00
48575;DHT22;34352;51.084;3.712;2022-09-09T13:18:33;21.00;1.00
48575;DHT22;34352;51.084;3.712;2022-09-09T13:21:00;21.30;1.00
48575;DHT22;34352;51.084;3.712;2022-09-09T13:23:31;21.50;1.00
48575;DHT22;34352;51.084;3.712;2022-09-09T13:26:24;21.80;1.00
48575;DHT22;34352;51.084;3.712;2022-09-09T13:28:53;22.20;1.00
48575;DHT22;34352;51.084;3.712;2022-09-09T13:31:23;22.40;1.00
48575;DHT22;34352;51.084;3.712;2022-09-09T13:33:49;22.90;1.00
48575;DHT22;34352;51.084;3.712;2022-09-09T13:36:15;23.60;1.00
48575;DHT22;34352;51.084;3.712;2022-09-09T13:41:28;24.50;1.00
48575;DHT22;34352;51.084;3.712;2022-09-09T13:43:55;23.80;1.00
48575;DHT22;34352;51.084;3.712;2022-09-09T13:46:36;23.30;1.00
48575;DHT22;34352;51.084;3.712;2022-09-09T13:49:19;23.10;1.00
48575;DHT22;34352;51.084;3.712;2022-09-09T13:51:50;22.80;1.00
48575;DHT22;34352;51.084;3.712;2022-09-09T13:54:18;22.70;1.00
48575;DHT22;34352;51.084;3.712;2022-09-09T13:56:45;22.30;1.00
48575;DHT22;34352;51.084;3.712;2022-09-09T13:59:12;22.20;1.00
48575;DHT22;34352;51.084;3.712;2022-09-09T14:01:40;22.10;1.00
48575;DHT22;34352;51.084;3.712;2022-09-09T14:04:06;22.00;1.00
48575;DHT22;34352;51.084;3.712;2022-09-09T14:06:32;21.90;1.00
48575;DHT22;34352;51.084;3.712;2022-09-09T14:09:00;21.80;1.00
48575;DHT22;34352;51.084;3.712;2022-09-09T14:11:26;21.50;1.00
48575;DHT22;34352;51.084;3.712;2022-09-09T14:13:51;21.20;1.00
48575;DHT22;34352;51.084;3.712;2022-09-09T14:16:18;21.00;1.00
48575;DHT22;34352;51.084;3.712;2022-09-09T14:18:44;20.70;1.00
48575;DHT22;34352;51.084;3.712;2022-09-09T14:21:11;20.60;1.00
48575;DHT22;34352;51.084;3.712;2022-09-09T14:23:37;20.50;1.00
48575;DHT22;34352;51.084;3.712;2022-09-09T14:26:07;20.60;1.00
48575;DHT22;34352;51.084;3.712;2022-09-09T14:28:33;20.60;1.00
48575;DHT22;34352;51.084;3.712;2022-09-09T14:31:00;20.80;1.00
48575;DHT22;34352;51.084;3.712;2022-09-09T14:33:26;21.30;1.00
48575;DHT22;34352;51.084;3.712;2022-09-09T14:36:03;22.10;1.00
48575;DHT22;34352;51.084;3.712;2022-09-09T14:38:30;23.00;1.00
48575;DHT22;34352;51.084;3.712;2022-09-09T14:40:56;23.50;1.00
48575;DHT22;34352;51.084;3.712;2022-09-09T14:43:23;23.40;1.00
48575;DHT22;34352;51.084;3.712;2022-09-09T14:45:49;23.30;1.00
48575;DHT22;34352;51.084;3.712;2022-09-09T14:48:16;23.20;1.00
48575;DHT22;34352;51.084;3.712;2022-09-09T14:50:42;22.40;1.00
48575;DHT22;34352;51.084;3.712;2022-09-09T14:53:08;21.60;1.00
48575;DHT22;34352;51.084;3.712;2022-09-09T14:55:35;21.20;1.00
48575;DHT22;34352;51.084;3.712;2022-09-09T14:58:01;21.00;1.00
48575;DHT22;34352;51.084;3.712;2022-09-09T15:00:27;21.00;1.00
48575;DHT22;34352;51.084;3.712;2022-09-09T15:02:54;20.70;1.00
48575;DHT22;34352;51.084;3.712;2022-09-09T15:05:20;20.60;1.00
48575;DHT22;34352;51.084;3.712;2022-09-09T15:07:45;20.50;1.00
48575;DHT22;34352;51.084;3.712;2022-09-09T15:10:12;20.40;1.00
48575;DHT22;34352;51.084;3.712;2022-09-09T15:12:39;20.20;1.00
48575;DHT22;34352;51.084;3.712;2022-09-09T15:15:06;20.10;1.00
48575;DHT22;34352;51.084;3.712;2022-09-09T15:17:31;20.10;1.00
48575;DHT22;34352;51.084;3.712;2022-09-09T15:19:57;20.00;8.70
48575;DHT22;34352;51.084;3.712;2022-09-09T15:22:23;20.10;10.20
48575;DHT22;34352;51.084;3.712;2022-09-09T15:24:50;20.00;1.30
48575;DHT22;34352;51.084;3.712;2022-09-09T15:27:16;19.90;12.90
48575;DHT22;34352;51.084;3.712;2022-09-09T15:29:43;19.90;15.10
48575;DHT22;34352;51.084;3.712;2022-09-09T15:32:09;20.00;8.70
48575;DHT22;34352;51.084;3.712;2022-09-09T15:34:35;20.00;20.60
48575;DHT22;34352;51.084;3.712;2022-09-09T15:37:00;20.10;18.00
48575;DHT22;34352;51.084;3.712;2022-09-09T15:39:26;20.20;16.50
48575;DHT22;34352;51.084;3.712;2022-09-09T15:41:52;20.10;16.60
48575;DHT22;34352;51.084;3.712;2022-09-09T15:44:18;20.00;16.80
48575;DHT22;34352;51.084;3.712;2022-09-09T15:46:51;20.00;20.20
48575;DHT22;34352;51.084;3.712;2022-09-09T15:49:27;20.00;27.50
48575;DHT22;34352;51.084;3.712;2022-09-09T15:51:58;20.00;29.00
48575;DHT22;34352;51.084;3.712;2022-09-09T15:54:31;20.10;29.60
48575;DHT22;34352;51.084;3.712;2022-09-09T15:56:59;20.20;28.30
48575;DHT22;34352;51.084;3.712;2022-09-09T15:59:27;20.30;21.90
48575;DHT22;34352;51.084;3.712;2022-09-09T16:01:54;20.30;9.20
48575;DHT22;34352;51.084;3.712;2022-09-09T16:04:21;20.40;1.00
48575;DHT22;34352;51.084;3.712;2022-09-09T16:06:55;20.50;8.40
48575;DHT22;34352;51.084;3.712;2022-09-09T16:09:23;20.70;1.00
48575;DHT22;34352;51.084;3.712;2022-09-09T16:11:48;21.00;1.00
48575;DHT22;34352;51.084;3.712;2022-09-09T16:14:15;21.10;1.00
48575;DHT22;34352;51.084;3.712;2022-09-09T16:16:41;21.00;1.00
48575;DHT22;34352;51.084;3.712;2022-09-09T16:19:09;21.10;1.00
48575;DHT22;34352;51.084;3.712;2022-09-09T16:21:49;21.10;1.00
48575;DHT22;34352;51.084;3.712;2022-09-09T16:24:17;21.00;1.00
48575;DHT22;34352;51.084;3.712;2022-09-09T16:26:51;20.80;1.00
48575;DHT22;34352;51.084;3.712;2022-09-09T16:29:19;20.80;1.00
48575;DHT22;34352;51.084;3.712;2022-09-09T16:31:46;20.60;1.00
48575;DHT22;34352;51.084;3.712;2022-09-09T16:34:13;20.60;1.00
48575;DHT22;34352;51.084;3.712;2022-09-09T16:36:43;20.50;1.00
48575;DHT22;34352;51.084;3.712;2022-09-09T16:39:19;20.40;1.00
48575;DHT22;34352;51.084;3.712;2022-09-09T16:41:50;20.30;1.00
48575;DHT22;34352;51.084;3.712;2022-09-09T16:44:18;20.40;1.00
48575;DHT22;34352;51.084;3.712;2022-09-09T16:46:48;20.30;1.00
48575;DHT22;34352;51.084;3.712;2022-09-09T16:49:18;20.30;1.00
48575;DHT22;34352;51.084;3.712;2022-09-09T16:51:48;20.30;1.00
48575;DHT22;34352;51.084;3.712;2022-09-09T16:54:16;20.30;1.00
48575;DHT22;34352;51.084;3.712;2022-09-09T16:56:45;20.20;1.00
48575;DHT22;34352;51.084;3.712;2022-09-09T16:59:16;20.10;1.00
48575;DHT22;34352;51.084;3.712;2022-09-09T17:01:44;20.00;1.00
48575;DHT22;34352;51.084;3.712;2022-09-09T17:04:19;20.00;1.00
48575;DHT22;34352;51.084;3.712;2022-09-09T17:06:51;20.00;1.00
48575;DHT22;34352;51.084;3.712;2022-09-09T17:09:18;20.00;1.00
48575;DHT22;34352;51.084;3.712;2022-09-09T17:11:44;20.10;1.00
48575;DHT22;34352;51.084;3.712;2022-09-09T17:14:15;20.10;1.00
48575;DHT22;34352;51.084;3.712;2022-09-09T17:16:41;20.20;1.00
48575;DHT22;34352;51.084;3.712;2022-09-09T17:19:08;20.20;1.00
48575;DHT22;34352;51.084;3.712;2022-09-09T17:21:34;20.20;1.00
48575;DHT22;34352;51.084;3.712;2022-09-09T17:24:02;20.20;1.00
48575;DHT22;34352;51.084;3.712;2022-09-09T17:26:30;20.20;1.00
48575;DHT22;34352;51.084;3.712;2022-09-09T17:28:59;20.10;1.00
48575;DHT22;34352;51.084;3.712;2022-09-09T17:31:28;20.00;1.00
48575;DHT22;34352;51.084;3.712;2022-09-09T17:33:54;20.00;1.00
48575;DHT22;34352;51.084;3.712;2022-09-09T17:36:32;20.00;1.00
48575;DHT22;34352;51.084;3.712;2022-09-09T17:38:58;19.80;1.00
48575;DHT22;34352;51.084;3.712;2022-09-09T17:41:28;19.80;1.00